sensor_id;sensor_type;location;lat;lon;timestamp;P1;durP1;ratioP1;P2;durP2;ratioP2
1505;SDS011;744;51.436;7.356;2023-02-22T00:00:29;55.27;;;24.50;;
1505;SDS011;744;51.436;7.356;2023-02-22T00:05:37;51.47;;;23.13;;
1505;SDS011;744;51.436;7.356;2023-02-22T00:08:05;43.67;;;20.10;;
1505;SDS011;744;51.436;7.356;2023-02-22T00:10:36;53.07;;;23.30;;
1505;SDS011;744;51.436;7.356;2023-02-22T00:13:04;47.40;;;21.33;;
1505;SDS011;744;51.436;7.356;2023-02-22T00:15:33;35.13;;;18.00;;
1505;SDS011;744;51.436;7.356;2023-02-22T00:18:00;95.97;;;22.43;;
1505;SDS011;744;51.436;7.356;2023-02-22T00:20:28;89.10;;;23.47;;
1505;SDS011;744;51.436;7.356;2023-02-22T00:22:55;100.57;;;25.30;;
1505;SDS011;744;51.436;7.356;2023-02-22T00:25:22;41.87;;;19.83;;
1505;SDS011;744;51.436;7.356;2023-02-22T00:27:50;101.67;;;23.60;;
1505;SDS011;744;51.436;7.356;2023-02-22T00:30:26;50.50;;;20.87;;
1505;SDS011;744;51.436;7.356;2023-02-22T00:32:55;83.53;;;23.80;;
1505;SDS011;744;51.436;7.356;2023-02-22T00:35:26;72.60;;;23.70;;
1505;SDS011;744;51.436;7.356;2023-02-22T00:37:57;63.23;;;22.50;;
1505;SDS011;744;51.436;7.356;2023-02-22T00:40:26;71.13;;;22.83;;
1505;SDS011;744;51.436;7.356;2023-02-22T00:42:57;115.57;;;27.23;;
1505;SDS011;744;51.436;7.356;2023-02-22T00:45:26;58.23;;;22.70;;
1505;SDS011;744;51.436;7.356;2023-02-22T00:47:54;104.30;;;26.40;;
1505;SDS011;744;51.436;7.356;2023-02-22T00:50:22;56.03;;;23.90;;
1505;SDS011;744;51.436;7.356;2023-02-22T00:52:50;80.53;;;24.30;;
1505;SDS011;744;51.436;7.356;2023-02-22T00:55:18;44.97;;;20.07;;
1505;SDS011;744;51.436;7.356;2023-02-22T00:57:47;90.70;;;23.47;;
1505;SDS011;744;51.436;7.356;2023-02-22T01:00:16;89.87;;;24.43;;
1505;SDS011;744;51.436;7.356;2023-02-22T01:02:51;128.30;;;27.87;;
1505;SDS011;744;51.436;7.356;2023-02-22T01:05:20;106.57;;;24.43;;
1505;SDS011;744;51.436;7.356;2023-02-22T01:07:48;64.60;;;22.20;;
1505;SDS011;744;51.436;7.356;2023-02-22T01:10:19;53.40;;;21.80;;
1505;SDS011;744;51.436;7.356;2023-02-22T01:12:48;185.83;;;32.53;;
1505;SDS011;744;51.436;7.356;2023-02-22T01:15:15;69.53;;;23.43;;
1505;SDS011;744;51.436;7.356;2023-02-22T01:17:50;51.67;;;21.63;;
1505;SDS011;744;51.436;7.356;2023-02-22T01:20:20;46.60;;;20.90;;
1505;SDS011;744;51.436;7.356;2023-02-22T01:22:48;93.70;;;23.93;;
1505;SDS011;744;51.436;7.356;2023-02-22T01:25:18;62.10;;;23.47;;
1505;SDS011;744;51.436;7.356;2023-02-22T01:27:47;47.70;;;19.07;;
1505;SDS011;744;51.436;7.356;2023-02-22T01:30:15;48.60;;;22.40;;
1505;SDS011;744;51.436;7.356;2023-02-22T01:32:47;105.50;;;23.23;;
1505;SDS011;744;51.436;7.356;2023-02-22T01:35:17;80.80;;;21.97;;
1505;SDS011;744;51.436;7.356;2023-02-22T01:37:46;81.70;;;22.60;;
1505;SDS011;744;51.436;7.356;2023-02-22T01:40:15;71.87;;;21.53;;
1505;SDS011;744;51.436;7.356;2023-02-22T01:42:50;91.60;;;20.60;;
1505;SDS011;744;51.436;7.356;2023-02-22T01:48:04;94.23;;;22.30;;
1505;SDS011;744;51.436;7.356;2023-02-22T01:50:35;76.53;;;19.50;;
1505;SDS011;744;51.436;7.356;2023-02-22T01:53:05;98.87;;;20.23;;
1505;SDS011;744;51.436;7.356;2023-02-22T01:55:34;83.73;;;21.50;;
1505;SDS011;744;51.436;7.356;2023-02-22T01:58:01;61.77;;;18.60;;
1505;SDS011;744;51.436;7.356;2023-02-22T02:00:30;46.27;;;20.57;;
1505;SDS011;744;51.436;7.356;2023-02-22T02:02:59;40.30;;;16.87;;
1505;SDS011;744;51.436;7.356;2023-02-22T02:05:31;72.03;;;20.63;;
1505;SDS011;744;51.436;7.356;2023-02-22T02:08:00;173.10;;;28.53;;
1505;SDS011;744;51.436;7.356;2023-02-22T02:10:39;236.10;;;33.50;;
1505;SDS011;744;51.436;7.356;2023-02-22T02:13:07;196.57;;;27.57;;
1505;SDS011;744;51.436;7.356;2023-02-22T02:15:35;293.83;;;33.97;;
1505;SDS011;744;51.436;7.356;2023-02-22T02:18:06;174.77;;;28.27;;
1505;SDS011;744;51.436;7.356;2023-02-22T02:29:21;227.93;;;27.60;;
1505;SDS011;744;51.436;7.356;2023-02-22T02:37:54;69.83;;;16.43;;
1505;SDS011;744;51.436;7.356;2023-02-22T02:40:45;41.20;;;16.10;;
1505;SDS011;744;51.436;7.356;2023-02-22T02:43:31;89.60;;;17.17;;
1505;SDS011;744;51.436;7.356;2023-02-22T02:46:12;77.73;;;15.63;;
1505;SDS011;744;51.436;7.356;2023-02-22T02:48:45;38.77;;;14.77;;
1505;SDS011;744;51.436;7.356;2023-02-22T02:51:22;131.60;;;18.63;;
1505;SDS011;744;51.436;7.356;2023-02-22T02:53:52;90.27;;;17.73;;
1505;SDS011;744;51.436;7.356;2023-02-22T02:56:20;115.03;;;15.13;;
1505;SDS011;744;51.436;7.356;2023-02-22T02:58:50;80.77;;;15.33;;
1505;SDS011;744;51.436;7.356;2023-02-22T03:01:29;121.80;;;17.70;;
1505;SDS011;744;51.436;7.356;2023-02-22T03:10:16;225.83;;;22.20;;
1505;SDS011;744;51.436;7.356;2023-02-22T03:18:43;78.53;;;14.47;;
1505;SDS011;744;51.436;7.356;2023-02-22T03:21:30;109.00;;;15.73;;
1505;SDS011;744;51.436;7.356;2023-02-22T03:24:05;133.63;;;18.43;;
1505;SDS011;744;51.436;7.356;2023-02-22T03:26:55;96.30;;;17.00;;
1505;SDS011;744;51.436;7.356;2023-02-22T03:29:46;57.87;;;11.30;;
1505;SDS011;744;51.436;7.356;2023-02-22T03:32:17;130.67;;;15.80;;
1505;SDS011;744;51.436;7.356;2023-02-22T03:34:50;34.27;;;10.20;;
1505;SDS011;744;51.436;7.356;2023-02-22T03:37:24;115.60;;;16.90;;
1505;SDS011;744;51.436;7.356;2023-02-22T03:39:56;60.07;;;11.13;;
1505;SDS011;744;51.436;7.356;2023-02-22T03:42:28;117.67;;;16.37;;
1505;SDS011;744;51.436;7.356;2023-02-22T03:44:59;104.87;;;15.43;;
1505;SDS011;744;51.436;7.356;2023-02-22T03:47:34;70.13;;;12.30;;
1505;SDS011;744;51.436;7.356;2023-02-22T03:50:19;279.23;;;28.00;;
1505;SDS011;744;51.436;7.356;2023-02-22T03:52:51;295.60;;;23.60;;
1505;SDS011;744;51.436;7.356;2023-02-22T03:55:18;227.50;;;22.27;;
1505;SDS011;744;51.436;7.356;2023-02-22T03:57:47;103.20;;;13.50;;
1505;SDS011;744;51.436;7.356;2023-02-22T04:00:22;141.10;;;13.40;;
1505;SDS011;744;51.436;7.356;2023-02-22T04:02:50;51.53;;;10.37;;
1505;SDS011;744;51.436;7.356;2023-02-22T04:05:18;105.27;;;16.00;;
1505;SDS011;744;51.436;7.356;2023-02-22T04:07:45;157.37;;;15.30;;
1505;SDS011;744;51.436;7.356;2023-02-22T04:10:12;135.23;;;15.90;;
1505;SDS011;744;51.436;7.356;2023-02-22T04:12:41;97.23;;;13.60;;
1505;SDS011;744;51.436;7.356;2023-02-22T04:15:10;114.97;;;13.20;;
1505;SDS011;744;51.436;7.356;2023-02-22T04:17:40;88.17;;;12.07;;
1505;SDS011;744;51.436;7.356;2023-02-22T04:20:07;194.40;;;17.00;;
1505;SDS011;744;51.436;7.356;2023-02-22T04:22:35;39.47;;;9.00;;
1505;SDS011;744;51.436;7.356;2023-02-22T04:25:01;71.37;;;10.97;;
1505;SDS011;744;51.436;7.356;2023-02-22T04:27:28;189.10;;;15.80;;
1505;SDS011;744;51.436;7.356;2023-02-22T04:29:55;114.07;;;12.93;;
1505;SDS011;744;51.436;7.356;2023-02-22T04:32:22;51.03;;;9.80;;
1505;SDS011;744;51.436;7.356;2023-02-22T04:34:48;131.70;;;17.37;;
1505;SDS011;744;51.436;7.356;2023-02-22T04:37:15;170.33;;;16.70;;
1505;SDS011;744;51.436;7.356;2023-02-22T04:39:42;124.97;;;19.80;;
1505;SDS011;744;51.436;7.356;2023-02-22T04:42:09;91.13;;;13.80;;
1505;SDS011;744;51.436;7.356;2023-02-22T04:44:36;74.30;;;9.97;;
1505;SDS011;744;51.436;7.356;2023-02-22T04:47:02;58.63;;;10.10;;
1505;SDS011;744;51.436;7.356;2023-02-22T04:49:29;25.13;;;7.77;;
1505;SDS011;744;51.436;7.356;2023-02-22T04:51:56;110.03;;;14.70;;
1505;SDS011;744;51.436;7.356;2023-02-22T04:54:23;97.10;;;15.87;;
1505;SDS011;744;51.436;7.356;2023-02-22T04:56:50;114.13;;;15.80;;
1505;SDS011;744;51.436;7.356;2023-02-22T04:59:17;95.27;;;16.17;;
1505;SDS011;744;51.436;7.356;2023-02-22T05:01:44;60.77;;;12.40;;
1505;SDS011;744;51.436;7.356;2023-02-22T05:04:11;184.17;;;17.17;;
1505;SDS011;744;51.436;7.356;2023-02-22T05:06:38;220.83;;;20.60;;
1505;SDS011;744;51.436;7.356;2023-02-22T05:09:05;228.27;;;23.40;;
1505;SDS011;744;51.436;7.356;2023-02-22T05:11:32;86.50;;;10.40;;
1505;SDS011;744;51.436;7.356;2023-02-22T05:13:58;162.03;;;20.73;;
1505;SDS011;744;51.436;7.356;2023-02-22T05:16:25;214.00;;;21.67;;
1505;SDS011;744;51.436;7.356;2023-02-22T05:18:52;171.83;;;16.47;;
1505;SDS011;744;51.436;7.356;2023-02-22T05:21:19;152.30;;;16.63;;
1505;SDS011;744;51.436;7.356;2023-02-22T05:23:45;157.87;;;18.83;;
1505;SDS011;744;51.436;7.356;2023-02-22T05:26:12;175.57;;;17.30;;
1505;SDS011;744;51.436;7.356;2023-02-22T05:28:39;56.90;;;8.07;;
1505;SDS011;744;51.436;7.356;2023-02-22T05:31:06;254.67;;;26.03;;
1505;SDS011;744;51.436;7.356;2023-02-22T05:33:33;224.77;;;19.40;;
1505;SDS011;744;51.436;7.356;2023-02-22T05:36:00;285.47;;;25.67;;
1505;SDS011;744;51.436;7.356;2023-02-22T05:38:27;147.67;;;16.43;;
1505;SDS011;744;51.436;7.356;2023-02-22T05:40:53;231.17;;;20.80;;
1505;SDS011;744;51.436;7.356;2023-02-22T05:43:22;217.23;;;27.03;;
1505;SDS011;744;51.436;7.356;2023-02-22T05:45:48;82.57;;;11.67;;
1505;SDS011;744;51.436;7.356;2023-02-22T05:48:15;102.37;;;15.07;;
1505;SDS011;744;51.436;7.356;2023-02-22T05:50:42;154.93;;;16.50;;
1505;SDS011;744;51.436;7.356;2023-02-22T05:53:09;84.67;;;11.13;;
1505;SDS011;744;51.436;7.356;2023-02-22T05:55:36;61.07;;;11.07;;
1505;SDS011;744;51.436;7.356;2023-02-22T05:58:02;117.13;;;12.60;;
1505;SDS011;744;51.436;7.356;2023-02-22T06:00:31;141.67;;;14.70;;
1505;SDS011;744;51.436;7.356;2023-02-22T06:02:59;198.60;;;18.67;;
1505;SDS011;744;51.436;7.356;2023-02-22T06:05:27;174.07;;;17.40;;
1505;SDS011;744;51.436;7.356;2023-02-22T06:07:55;96.27;;;11.30;;
1505;SDS011;744;51.436;7.356;2023-02-22T06:10:23;191.17;;;17.60;;
1505;SDS011;744;51.436;7.356;2023-02-22T06:12:50;289.00;;;21.77;;
1505;SDS011;744;51.436;7.356;2023-02-22T06:15:18;217.53;;;16.80;;
1505;SDS011;744;51.436;7.356;2023-02-22T06:17:47;121.83;;;15.27;;
1505;SDS011;744;51.436;7.356;2023-02-22T06:20:15;175.60;;;14.40;;
1505;SDS011;744;51.436;7.356;2023-02-22T06:22:45;160.63;;;16.80;;
1505;SDS011;744;51.436;7.356;2023-02-22T06:25:14;236.03;;;19.47;;
1505;SDS011;744;51.436;7.356;2023-02-22T06:27:42;103.03;;;13.07;;
1505;SDS011;744;51.436;7.356;2023-02-22T06:30:10;96.83;;;12.10;;
1505;SDS011;744;51.436;7.356;2023-02-22T06:32:38;23.67;;;4.87;;
1505;SDS011;744;51.436;7.356;2023-02-22T06:35:05;34.10;;;5.57;;
1505;SDS011;744;51.436;7.356;2023-02-22T06:37:32;7.67;;;5.63;;
1505;SDS011;744;51.436;7.356;2023-02-22T06:40:00;6.17;;;4.70;;
1505;SDS011;744;51.436;7.356;2023-02-22T06:42:31;7.70;;;6.43;;
1505;SDS011;744;51.436;7.356;2023-02-22T06:44:58;9.03;;;7.67;;
1505;SDS011;744;51.436;7.356;2023-02-22T06:47:25;9.23;;;8.20;;
1505;SDS011;744;51.436;7.356;2023-02-22T06:49:52;18.43;;;6.20;;
1505;SDS011;744;51.436;7.356;2023-02-22T06:52:20;10.30;;;7.07;;
1505;SDS011;744;51.436;7.356;2023-02-22T06:54:47;8.93;;;6.23;;
1505;SDS011;744;51.436;7.356;2023-02-22T06:57:15;8.70;;;6.00;;
1505;SDS011;744;51.436;7.356;2023-02-22T06:59:42;11.43;;;6.53;;
1505;SDS011;744;51.436;7.356;2023-02-22T07:02:13;9.87;;;6.23;;
1505;SDS011;744;51.436;7.356;2023-02-22T07:04:40;10.70;;;6.40;;
1505;SDS011;744;51.436;7.356;2023-02-22T07:07:08;8.93;;;6.83;;
1505;SDS011;744;51.436;7.356;2023-02-22T07:09:36;8.57;;;6.90;;
1505;SDS011;744;51.436;7.356;2023-02-22T07:12:02;6.67;;;5.57;;
1505;SDS011;744;51.436;7.356;2023-02-22T07:14:29;6.77;;;5.90;;
1505;SDS011;744;51.436;7.356;2023-02-22T07:16:56;6.93;;;5.63;;
1505;SDS011;744;51.436;7.356;2023-02-22T07:19:23;7.63;;;6.20;;
1505;SDS011;744;51.436;7.356;2023-02-22T07:21:52;12.20;;;9.17;;
1505;SDS011;744;51.436;7.356;2023-02-22T07:24:24;10.90;;;6.23;;
1505;SDS011;744;51.436;7.356;2023-02-22T07:26:53;7.73;;;6.57;;
1505;SDS011;744;51.436;7.356;2023-02-22T07:29:20;10.20;;;6.80;;
1505;SDS011;744;51.436;7.356;2023-02-22T07:31:47;10.60;;;6.40;;
1505;SDS011;744;51.436;7.356;2023-02-22T07:34:14;10.40;;;6.90;;
1505;SDS011;744;51.436;7.356;2023-02-22T07:36:41;10.30;;;7.20;;
1505;SDS011;744;51.436;7.356;2023-02-22T07:39:08;9.73;;;6.70;;
1505;SDS011;744;51.436;7.356;2023-02-22T07:41:36;10.30;;;7.20;;
1505;SDS011;744;51.436;7.356;2023-02-22T07:44:03;10.90;;;7.10;;
1505;SDS011;744;51.436;7.356;2023-02-22T07:46:30;11.43;;;8.20;;
1505;SDS011;744;51.436;7.356;2023-02-22T07:48:56;14.47;;;8.47;;
1505;SDS011;744;51.436;7.356;2023-02-22T07:51:23;9.23;;;7.90;;
1505;SDS011;744;51.436;7.356;2023-02-22T07:53:50;11.30;;;7.90;;
1505;SDS011;744;51.436;7.356;2023-02-22T07:56:17;11.07;;;7.93;;
1505;SDS011;744;51.436;7.356;2023-02-22T07:58:43;8.13;;;7.13;;
1505;SDS011;744;51.436;7.356;2023-02-22T08:01:10;12.43;;;8.93;;
1505;SDS011;744;51.436;7.356;2023-02-22T08:03:37;11.27;;;7.77;;
1505;SDS011;744;51.436;7.356;2023-02-22T08:06:04;9.87;;;7.70;;
1505;SDS011;744;51.436;7.356;2023-02-22T08:08:32;7.77;;;6.60;;
1505;SDS011;744;51.436;7.356;2023-02-22T08:10:59;7.40;;;6.50;;
1505;SDS011;744;51.436;7.356;2023-02-22T08:13:26;12.00;;;8.17;;
1505;SDS011;744;51.436;7.356;2023-02-22T08:15:53;9.67;;;7.20;;
1505;SDS011;744;51.436;7.356;2023-02-22T08:18:23;11.17;;;8.40;;
1505;SDS011;744;51.436;7.356;2023-02-22T08:20:50;12.77;;;8.10;;
1505;SDS011;744;51.436;7.356;2023-02-22T08:23:19;11.40;;;9.33;;
1505;SDS011;744;51.436;7.356;2023-02-22T08:25:47;11.00;;;8.10;;
1505;SDS011;744;51.436;7.356;2023-02-22T08:28:15;9.90;;;7.47;;
1505;SDS011;744;51.436;7.356;2023-02-22T08:30:44;15.00;;;7.83;;
1505;SDS011;744;51.436;7.356;2023-02-22T08:33:13;12.80;;;7.63;;
1505;SDS011;744;51.436;7.356;2023-02-22T08:35:42;14.20;;;9.00;;
1505;SDS011;744;51.436;7.356;2023-02-22T08:38:42;11.50;;;8.33;;
1505;SDS011;744;51.436;7.356;2023-02-22T08:41:02;12.57;;;9.70;;
1505;SDS011;744;51.436;7.356;2023-02-22T08:43:29;13.67;;;8.40;;
1505;SDS011;744;51.436;7.356;2023-02-22T08:45:56;9.93;;;7.83;;
1505;SDS011;744;51.436;7.356;2023-02-22T08:48:23;12.33;;;6.83;;
1505;SDS011;744;51.436;7.356;2023-02-22T08:50:50;11.10;;;7.70;;
1505;SDS011;744;51.436;7.356;2023-02-22T08:53:17;9.37;;;6.73;;
1505;SDS011;744;51.436;7.356;2023-02-22T08:55:44;8.53;;;7.20;;
1505;SDS011;744;51.436;7.356;2023-02-22T08:58:11;8.50;;;7.67;;
1505;SDS011;744;51.436;7.356;2023-02-22T09:00:38;10.77;;;7.67;;
1505;SDS011;744;51.436;7.356;2023-02-22T09:03:07;11.60;;;7.67;;
1505;SDS011;744;51.436;7.356;2023-02-22T09:05:37;13.60;;;7.67;;
1505;SDS011;744;51.436;7.356;2023-02-22T09:08:04;10.33;;;7.63;;
1505;SDS011;744;51.436;7.356;2023-02-22T09:10:31;8.93;;;7.73;;
1505;SDS011;744;51.436;7.356;2023-02-22T09:12:59;15.43;;;10.80;;
1505;SDS011;744;51.436;7.356;2023-02-22T09:15:27;13.27;;;9.60;;
1505;SDS011;744;51.436;7.356;2023-02-22T09:17:55;10.77;;;7.90;;
1505;SDS011;744;51.436;7.356;2023-02-22T09:20:22;13.23;;;8.13;;
1505;SDS011;744;51.436;7.356;2023-02-22T09:22:49;12.70;;;8.37;;
1505;SDS011;744;51.436;7.356;2023-02-22T09:25:17;14.13;;;9.63;;
1505;SDS011;744;51.436;7.356;2023-02-22T09:27:46;18.80;;;11.17;;
1505;SDS011;744;51.436;7.356;2023-02-22T09:30:29;13.30;;;9.40;;
1505;SDS011;744;51.436;7.356;2023-02-22T09:33:05;13.93;;;11.00;;
1505;SDS011;744;51.436;7.356;2023-02-22T09:35:43;15.53;;;10.17;;
1505;SDS011;744;51.436;7.356;2023-02-22T09:38:12;20.67;;;9.37;;
1505;SDS011;744;51.436;7.356;2023-02-22T09:40:46;18.80;;;10.93;;
1505;SDS011;744;51.436;7.356;2023-02-22T09:54:13;17.83;;;8.40;;
1505;SDS011;744;51.436;7.356;2023-02-22T09:56:51;17.07;;;8.67;;
1505;SDS011;744;51.436;7.356;2023-02-22T09:59:24;14.17;;;7.77;;
1505;SDS011;744;51.436;7.356;2023-02-22T10:01:57;12.43;;;6.97;;
1505;SDS011;744;51.436;7.356;2023-02-22T10:04:36;11.87;;;7.00;;
1505;SDS011;744;51.436;7.356;2023-02-22T10:07:14;12.70;;;7.27;;
1505;SDS011;744;51.436;7.356;2023-02-22T10:09:59;17.50;;;6.87;;
1505;SDS011;744;51.436;7.356;2023-02-22T10:12:41;11.70;;;7.40;;
1505;SDS011;744;51.436;7.356;2023-02-22T10:24:12;13.50;;;7.67;;
1505;SDS011;744;51.436;7.356;2023-02-22T10:26:55;12.87;;;8.07;;
1505;SDS011;744;51.436;7.356;2023-02-22T10:29:29;10.17;;;7.50;;
1505;SDS011;744;51.436;7.356;2023-02-22T10:32:02;12.97;;;7.13;;
1505;SDS011;744;51.436;7.356;2023-02-22T10:34:40;10.20;;;6.37;;
1505;SDS011;744;51.436;7.356;2023-02-22T10:40:09;13.20;;;6.77;;
1505;SDS011;744;51.436;7.356;2023-02-22T10:42:42;10.90;;;6.73;;
1505;SDS011;744;51.436;7.356;2023-02-22T10:45:18;13.20;;;7.03;;
1505;SDS011;744;51.436;7.356;2023-02-22T10:47:45;8.40;;;6.73;;
1505;SDS011;744;51.436;7.356;2023-02-22T10:50:13;7.50;;;5.40;;
1505;SDS011;744;51.436;7.356;2023-02-22T10:52:40;8.90;;;6.77;;
1505;SDS011;744;51.436;7.356;2023-02-22T10:55:11;10.27;;;7.00;;
1505;SDS011;744;51.436;7.356;2023-02-22T10:57:43;10.63;;;6.47;;
1505;SDS011;744;51.436;7.356;2023-02-22T11:00:13;9.80;;;6.30;;
1505;SDS011;744;51.436;7.356;2023-02-22T11:02:52;8.10;;;5.83;;
1505;SDS011;744;51.436;7.356;2023-02-22T11:05:36;10.40;;;6.27;;
1505;SDS011;744;51.436;7.356;2023-02-22T11:08:15;11.00;;;4.93;;
1505;SDS011;744;51.436;7.356;2023-02-22T11:10:54;7.60;;;5.00;;
1505;SDS011;744;51.436;7.356;2023-02-22T11:13:42;10.10;;;5.47;;
1505;SDS011;744;51.436;7.356;2023-02-22T11:16:19;9.23;;;5.27;;
1505;SDS011;744;51.436;7.356;2023-02-22T11:19:26;8.20;;;5.80;;
1505;SDS011;744;51.436;7.356;2023-02-22T11:21:51;8.00;;;4.83;;
1505;SDS011;744;51.436;7.356;2023-02-22T11:24:21;7.90;;;5.53;;
1505;SDS011;744;51.436;7.356;2023-02-22T11:26:54;6.07;;;4.23;;
1505;SDS011;744;51.436;7.356;2023-02-22T11:29:25;6.43;;;4.33;;
1505;SDS011;744;51.436;7.356;2023-02-22T11:32:03;8.83;;;4.40;;
1505;SDS011;744;51.436;7.356;2023-02-22T11:34:46;6.30;;;4.23;;
1505;SDS011;744;51.436;7.356;2023-02-22T11:37:34;9.80;;;5.10;;
1505;SDS011;744;51.436;7.356;2023-02-22T11:40:04;6.90;;;4.50;;
1505;SDS011;744;51.436;7.356;2023-02-22T11:42:45;9.30;;;4.70;;
1505;SDS011;744;51.436;7.356;2023-02-22T11:47:53;5.93;;;3.90;;
1505;SDS011;744;51.436;7.356;2023-02-22T11:50:22;5.13;;;4.17;;
1505;SDS011;744;51.436;7.356;2023-02-22T11:52:57;4.10;;;3.33;;
1505;SDS011;744;51.436;7.356;2023-02-22T12:01:54;4.43;;;3.33;;
1505;SDS011;744;51.436;7.356;2023-02-22T12:09:53;4.03;;;3.57;;
1505;SDS011;744;51.436;7.356;2023-02-22T12:12:51;5.37;;;4.20;;
1505;SDS011;744;51.436;7.356;2023-02-22T12:15:32;8.50;;;4.40;;
1505;SDS011;744;51.436;7.356;2023-02-22T12:18:20;10.30;;;4.40;;
1505;SDS011;744;51.436;7.356;2023-02-22T12:20:59;5.53;;;4.07;;
1505;SDS011;744;51.436;7.356;2023-02-22T12:26:13;7.37;;;4.47;;
1505;SDS011;744;51.436;7.356;2023-02-22T12:31:28;5.83;;;3.30;;
1505;SDS011;744;51.436;7.356;2023-02-22T12:34:03;9.03;;;4.30;;
1505;SDS011;744;51.436;7.356;2023-02-22T12:37:12;3.30;;;3.00;;
1505;SDS011;744;51.436;7.356;2023-02-22T12:40:02;6.17;;;4.03;;
1505;SDS011;744;51.436;7.356;2023-02-22T12:45:38;5.77;;;4.13;;
1505;SDS011;744;51.436;7.356;2023-02-22T12:50:48;5.83;;;3.43;;
1505;SDS011;744;51.436;7.356;2023-02-22T12:53:25;4.17;;;3.33;;
1505;SDS011;744;51.436;7.356;2023-02-22T12:56:03;7.77;;;3.57;;
1505;SDS011;744;51.436;7.356;2023-02-22T12:58:58;5.30;;;3.20;;
1505;SDS011;744;51.436;7.356;2023-02-22T13:01:40;8.20;;;3.40;;
1505;SDS011;744;51.436;7.356;2023-02-22T13:04:10;5.37;;;3.37;;
1505;SDS011;744;51.436;7.356;2023-02-22T13:06:48;7.27;;;3.57;;
1505;SDS011;744;51.436;7.356;2023-02-22T13:15:19;5.37;;;3.63;;
1505;SDS011;744;51.436;7.356;2023-02-22T13:18:07;5.53;;;3.50;;
1505;SDS011;744;51.436;7.356;2023-02-22T13:23:42;8.80;;;4.43;;
1505;SDS011;744;51.436;7.356;2023-02-22T13:26:22;7.27;;;4.00;;
1505;SDS011;744;51.436;7.356;2023-02-22T13:29:03;5.47;;;3.33;;
1505;SDS011;744;51.436;7.356;2023-02-22T13:37:00;5.40;;;3.83;;
1505;SDS011;744;51.436;7.356;2023-02-22T13:42:36;7.10;;;4.23;;
1505;SDS011;744;51.436;7.356;2023-02-22T14:07:48;5.50;;;4.30;;
1505;SDS011;744;51.436;7.356;2023-02-22T14:14:11;8.90;;;4.97;;
1505;SDS011;744;51.436;7.356;2023-02-22T14:17:19;9.20;;;4.63;;
1505;SDS011;744;51.436;7.356;2023-02-22T14:23:33;8.07;;;4.00;;
1505;SDS011;744;51.436;7.356;2023-02-22T14:26:29;8.13;;;4.77;;
1505;SDS011;744;51.436;7.356;2023-02-22T14:29:15;4.60;;;3.70;;
1505;SDS011;744;51.436;7.356;2023-02-22T14:34:17;6.17;;;4.80;;
1505;SDS011;744;51.436;7.356;2023-02-22T14:36:53;7.10;;;4.87;;
1505;SDS011;744;51.436;7.356;2023-02-22T14:39:31;8.00;;;4.27;;
1505;SDS011;744;51.436;7.356;2023-02-22T14:44:51;4.93;;;4.20;;
1505;SDS011;744;51.436;7.356;2023-02-22T14:52:58;4.87;;;4.10;;
1505;SDS011;744;51.436;7.356;2023-02-22T14:55:29;6.40;;;4.20;;
1505;SDS011;744;51.436;7.356;2023-02-22T15:00:35;7.83;;;4.40;;
1505;SDS011;744;51.436;7.356;2023-02-22T15:05:47;4.80;;;3.87;;
1505;SDS011;744;51.436;7.356;2023-02-22T15:08:15;8.07;;;4.40;;
1505;SDS011;744;51.436;7.356;2023-02-22T15:10:44;5.43;;;3.23;;
1505;SDS011;744;51.436;7.356;2023-02-22T15:13:14;4.13;;;3.73;;
1505;SDS011;744;51.436;7.356;2023-02-22T15:15:41;5.50;;;4.43;;
1505;SDS011;744;51.436;7.356;2023-02-22T15:18:24;9.37;;;4.57;;
1505;SDS011;744;51.436;7.356;2023-02-22T15:20:56;12.63;;;5.60;;
1505;SDS011;744;51.436;7.356;2023-02-22T15:23:37;7.20;;;4.80;;
1505;SDS011;744;51.436;7.356;2023-02-22T15:26:07;5.30;;;3.80;;
1505;SDS011;744;51.436;7.356;2023-02-22T15:28:43;4.33;;;3.63;;
1505;SDS011;744;51.436;7.356;2023-02-22T15:31:14;10.87;;;4.37;;
1505;SDS011;744;51.436;7.356;2023-02-22T15:33:42;12.30;;;4.77;;
1505;SDS011;744;51.436;7.356;2023-02-22T15:36:12;6.93;;;4.50;;
1505;SDS011;744;51.436;7.356;2023-02-22T15:38:45;6.63;;;5.20;;
1505;SDS011;744;51.436;7.356;2023-02-22T15:41:25;5.93;;;3.70;;
1505;SDS011;744;51.436;7.356;2023-02-22T15:46:48;7.30;;;4.77;;
1505;SDS011;744;51.436;7.356;2023-02-22T15:51:44;5.53;;;4.07;;
1505;SDS011;744;51.436;7.356;2023-02-22T15:54:16;8.73;;;4.53;;
1505;SDS011;744;51.436;7.356;2023-02-22T15:56:53;11.17;;;5.20;;
1505;SDS011;744;51.436;7.356;2023-02-22T15:59:22;7.20;;;5.70;;
1505;SDS011;744;51.436;7.356;2023-02-22T16:01:56;6.23;;;4.97;;
1505;SDS011;744;51.436;7.356;2023-02-22T16:04:26;11.03;;;4.97;;
1505;SDS011;744;51.436;7.356;2023-02-22T16:07:07;7.47;;;5.50;;
1505;SDS011;744;51.436;7.356;2023-02-22T16:09:48;10.00;;;4.67;;
1505;SDS011;744;51.436;7.356;2023-02-22T16:14:46;8.93;;;5.50;;
1505;SDS011;744;51.436;7.356;2023-02-22T16:17:24;5.83;;;5.03;;
1505;SDS011;744;51.436;7.356;2023-02-22T16:19:58;7.20;;;4.97;;
1505;SDS011;744;51.436;7.356;2023-02-22T16:22:33;6.43;;;4.80;;
1505;SDS011;744;51.436;7.356;2023-02-22T16:27:48;5.97;;;4.63;;
1505;SDS011;744;51.436;7.356;2023-02-22T16:32:54;5.90;;;5.03;;
1505;SDS011;744;51.436;7.356;2023-02-22T16:35:25;7.67;;;5.03;;
1505;SDS011;744;51.436;7.356;2023-02-22T16:37:58;7.67;;;5.50;;
1505;SDS011;744;51.436;7.356;2023-02-22T16:40:31;7.67;;;5.60;;
1505;SDS011;744;51.436;7.356;2023-02-22T16:43:01;8.60;;;6.13;;
1505;SDS011;744;51.436;7.356;2023-02-22T16:45:31;9.97;;;6.63;;
1505;SDS011;744;51.436;7.356;2023-02-22T16:47:58;8.00;;;6.93;;
1505;SDS011;744;51.436;7.356;2023-02-22T16:50:25;8.90;;;5.80;;
1505;SDS011;744;51.436;7.356;2023-02-22T16:52:52;7.77;;;6.27;;
1505;SDS011;744;51.436;7.356;2023-02-22T16:55:20;11.03;;;5.53;;
1505;SDS011;744;51.436;7.356;2023-02-22T16:57:48;6.97;;;6.33;;
1505;SDS011;744;51.436;7.356;2023-02-22T17:00:20;9.30;;;6.13;;
1505;SDS011;744;51.436;7.356;2023-02-22T17:02:57;7.93;;;6.47;;
1505;SDS011;744;51.436;7.356;2023-02-22T17:05:24;11.67;;;6.50;;
1505;SDS011;744;51.436;7.356;2023-02-22T17:07:51;8.70;;;6.60;;
1505;SDS011;744;51.436;7.356;2023-02-22T17:10:18;8.50;;;6.90;;
1505;SDS011;744;51.436;7.356;2023-02-22T17:12:46;10.10;;;8.73;;
1505;SDS011;744;51.436;7.356;2023-02-22T17:15:25;9.80;;;7.20;;
1505;SDS011;744;51.436;7.356;2023-02-22T17:17:54;8.53;;;6.97;;
1505;SDS011;744;51.436;7.356;2023-02-22T17:20:21;15.50;;;7.03;;
1505;SDS011;744;51.436;7.356;2023-02-22T17:22:58;11.23;;;6.77;;
1505;SDS011;744;51.436;7.356;2023-02-22T17:25:37;12.87;;;7.57;;
1505;SDS011;744;51.436;7.356;2023-02-22T17:28:05;6.67;;;5.97;;
1505;SDS011;744;51.436;7.356;2023-02-22T17:30:33;11.30;;;7.63;;
1505;SDS011;744;51.436;7.356;2023-02-22T17:33:01;10.53;;;7.17;;
1505;SDS011;744;51.436;7.356;2023-02-22T17:35:34;9.30;;;7.30;;
1505;SDS011;744;51.436;7.356;2023-02-22T17:38:04;9.80;;;7.83;;
1505;SDS011;744;51.436;7.356;2023-02-22T17:40:32;9.83;;;7.10;;
1505;SDS011;744;51.436;7.356;2023-02-22T17:43:00;9.07;;;7.50;;
1505;SDS011;744;51.436;7.356;2023-02-22T17:45:28;12.80;;;8.30;;
1505;SDS011;744;51.436;7.356;2023-02-22T17:47:55;10.60;;;8.23;;
1505;SDS011;744;51.436;7.356;2023-02-22T17:50:24;10.70;;;8.50;;
1505;SDS011;744;51.436;7.356;2023-02-22T17:52:52;20.43;;;10.20;;
1505;SDS011;744;51.436;7.356;2023-02-22T17:55:19;11.30;;;8.03;;
1505;SDS011;744;51.436;7.356;2023-02-22T17:57:48;12.13;;;8.10;;
1505;SDS011;744;51.436;7.356;2023-02-22T18:00:24;18.60;;;9.07;;
1505;SDS011;744;51.436;7.356;2023-02-22T18:03:05;14.77;;;9.20;;
1505;SDS011;744;51.436;7.356;2023-02-22T18:05:47;11.70;;;9.70;;
1505;SDS011;744;51.436;7.356;2023-02-22T18:08:16;14.77;;;8.53;;
1505;SDS011;744;51.436;7.356;2023-02-22T18:10:43;16.30;;;8.97;;
1505;SDS011;744;51.436;7.356;2023-02-22T18:13:16;12.93;;;8.50;;
1505;SDS011;744;51.436;7.356;2023-02-22T18:15:44;9.40;;;8.40;;